sensor_id;sensor_type;location;lat;lon;timestamp;P1;durP1;ratioP1;P2;durP2;ratioP2
29200;SDS011;16244;51.956;12.980;2024-01-16T00:02:17;1.60;;;1.50;;
29200;SDS011;16244;51.956;12.980;2024-01-16T00:04:45;1.23;;;1.23;;
29200;SDS011;16244;51.956;12.980;2024-01-16T00:07:15;1.40;;;1.30;;
29200;SDS011;16244;51.956;12.980;2024-01-16T00:09:43;1.80;;;1.73;;
29200;SDS011;16244;51.956;12.980;2024-01-16T00:12:11;1.80;;;1.70;;
29200;SDS011;16244;51.956;12.980;2024-01-16T00:14:39;1.53;;;1.53;;
29200;SDS011;16244;51.956;12.980;2024-01-16T00:17:06;1.27;;;1.10;;
29200;SDS011;16244;51.956;12.980;2024-01-16T00:19:36;2.00;;;1.23;;
29200;SDS011;16244;51.956;12.980;2024-01-16T00:22:03;1.03;;;1.03;;
29200;SDS011;16244;51.956;12.980;2024-01-16T00:24:31;1.83;;;1.83;;
29200;SDS011;16244;51.956;12.980;2024-01-16T00:26:58;3.40;;;1.53;;
29200;SDS011;16244;51.956;12.980;2024-01-16T00:29:26;1.33;;;1.23;;
29200;SDS011;16244;51.956;12.980;2024-01-16T00:31:53;0.97;;;0.97;;
29200;SDS011;16244;51.956;12.980;2024-01-16T00:34:21;6.00;;;1.00;;
29200;SDS011;16244;51.956;12.980;2024-01-16T00:36:49;1.57;;;1.47;;
29200;SDS011;16244;51.956;12.980;2024-01-16T00:39:17;2.30;;;1.83;;
29200;SDS011;16244;51.956;12.980;2024-01-16T00:41:44;1.30;;;1.30;;
29200;SDS011;16244;51.956;12.980;2024-01-16T00:44:12;3.73;;;2.47;;
29200;SDS011;16244;51.956;12.980;2024-01-16T00:46:39;1.47;;;1.37;;
29200;SDS011;16244;51.956;12.980;2024-01-16T00:49:07;5.33;;;1.63;;
29200;SDS011;16244;51.956;12.980;2024-01-16T00:51:35;2.63;;;2.50;;
29200;SDS011;16244;51.956;12.980;2024-01-16T00:54:04;2.50;;;2.43;;
29200;SDS011;16244;51.956;12.980;2024-01-16T00:56:34;1.50;;;1.50;;
29200;SDS011;16244;51.956;12.980;2024-01-16T00:59:02;2.03;;;2.03;;
29200;SDS011;16244;51.956;12.980;2024-01-16T01:01:30;4.43;;;2.50;;
29200;SDS011;16244;51.956;12.980;2024-01-16T01:03:58;1.40;;;1.40;;
29200;SDS011;16244;51.956;12.980;2024-01-16T01:06:25;2.37;;;1.70;;
29200;SDS011;16244;51.956;12.980;2024-01-16T01:08:53;1.60;;;1.60;;
29200;SDS011;16244;51.956;12.980;2024-01-16T01:11:21;2.80;;;1.67;;
29200;SDS011;16244;51.956;12.980;2024-01-16T01:13:49;2.70;;;2.10;;
29200;SDS011;16244;51.956;12.980;2024-01-16T01:16:16;2.03;;;1.83;;
29200;SDS011;16244;51.956;12.980;2024-01-16T01:18:44;7.23;;;2.50;;
29200;SDS011;16244;51.956;12.980;2024-01-16T01:21:11;2.10;;;2.10;;
29200;SDS011;16244;51.956;12.980;2024-01-16T01:23:39;4.43;;;1.70;;
29200;SDS011;16244;51.956;12.980;2024-01-16T01:26:07;1.53;;;1.43;;
29200;SDS011;16244;51.956;12.980;2024-01-16T01:28:36;2.03;;;2.03;;
29200;SDS011;16244;51.956;12.980;2024-01-16T01:31:07;1.50;;;1.43;;
29200;SDS011;16244;51.956;12.980;2024-01-16T01:33:35;1.63;;;1.30;;
29200;SDS011;16244;51.956;12.980;2024-01-16T01:36:03;1.13;;;1.03;;
29200;SDS011;16244;51.956;12.980;2024-01-16T01:38:31;2.73;;;1.30;;
29200;SDS011;16244;51.956;12.980;2024-01-16T01:40:58;1.40;;;1.30;;
29200;SDS011;16244;51.956;12.980;2024-01-16T01:43:26;10.73;;;1.70;;
29200;SDS011;16244;51.956;12.980;2024-01-16T01:46:08;1.00;;;1.00;;
29200;SDS011;16244;51.956;12.980;2024-01-16T01:48:37;1.87;;;1.43;;
29200;SDS011;16244;51.956;12.980;2024-01-16T01:51:06;1.10;;;1.10;;
29200;SDS011;16244;51.956;12.980;2024-01-16T01:53:34;1.20;;;1.20;;
29200;SDS011;16244;51.956;12.980;2024-01-16T01:56:03;1.60;;;1.60;;
29200;SDS011;16244;51.956;12.980;2024-01-16T01:58:34;0.80;;;0.80;;
29200;SDS011;16244;51.956;12.980;2024-01-16T02:01:03;3.37;;;1.17;;
29200;SDS011;16244;51.956;12.980;2024-01-16T02:03:35;1.20;;;1.20;;
29200;SDS011;16244;51.956;12.980;2024-01-16T02:06:07;0.97;;;0.97;;
29200;SDS011;16244;51.956;12.980;2024-01-16T02:08:34;1.80;;;1.13;;
29200;SDS011;16244;51.956;12.980;2024-01-16T02:11:02;2.83;;;0.80;;
29200;SDS011;16244;51.956;12.980;2024-01-16T02:13:30;1.00;;;1.00;;
29200;SDS011;16244;51.956;12.980;2024-01-16T02:15:58;1.00;;;0.90;;
29200;SDS011;16244;51.956;12.980;2024-01-16T02:18:26;4.37;;;0.70;;
29200;SDS011;16244;51.956;12.980;2024-01-16T02:20:54;2.83;;;1.23;;
29200;SDS011;16244;51.956;12.980;2024-01-16T02:23:27;0.80;;;0.80;;
29200;SDS011;16244;51.956;12.980;2024-01-16T02:25:56;0.60;;;0.60;;
29200;SDS011;16244;51.956;12.980;2024-01-16T02:28:23;0.80;;;0.80;;
29200;SDS011;16244;51.956;12.980;2024-01-16T02:30:51;0.57;;;0.57;;
29200;SDS011;16244;51.956;12.980;2024-01-16T02:33:18;0.60;;;0.60;;
29200;SDS011;16244;51.956;12.980;2024-01-16T02:35:46;0.47;;;0.47;;
29200;SDS011;16244;51.956;12.980;2024-01-16T02:38:14;0.40;;;0.40;;
29200;SDS011;16244;51.956;12.980;2024-01-16T02:40:43;1.17;;;0.50;;
29200;SDS011;16244;51.956;12.980;2024-01-16T02:43:10;0.30;;;0.30;;
29200;SDS011;16244;51.956;12.980;2024-01-16T02:45:38;0.30;;;0.30;;
29200;SDS011;16244;51.956;12.980;2024-01-16T02:48:06;0.43;;;0.43;;
29200;SDS011;16244;51.956;12.980;2024-01-16T02:50:33;0.30;;;0.30;;
29200;SDS011;16244;51.956;12.980;2024-01-16T02:53:01;0.40;;;0.40;;
29200;SDS011;16244;51.956;12.980;2024-01-16T02:55:28;0.40;;;0.40;;
29200;SDS011;16244;51.956;12.980;2024-01-16T02:57:57;0.30;;;0.30;;
29200;SDS011;16244;51.956;12.980;2024-01-16T03:00:25;0.30;;;0.30;;
29200;SDS011;16244;51.956;12.980;2024-01-16T03:02:52;0.40;;;0.40;;
29200;SDS011;16244;51.956;12.980;2024-01-16T03:05:20;0.50;;;0.40;;
29200;SDS011;16244;51.956;12.980;2024-01-16T03:07:47;1.40;;;0.40;;
29200;SDS011;16244;51.956;12.980;2024-01-16T03:10:15;0.33;;;0.33;;
29200;SDS011;16244;51.956;12.980;2024-01-16T03:12:43;0.30;;;0.30;;
29200;SDS011;16244;51.956;12.980;2024-01-16T03:15:12;0.50;;;0.50;;
29200;SDS011;16244;51.956;12.980;2024-01-16T03:17:40;0.50;;;0.40;;
29200;SDS011;16244;51.956;12.980;2024-01-16T03:20:08;0.30;;;0.30;;
29200;SDS011;16244;51.956;12.980;2024-01-16T03:22:36;0.30;;;0.30;;
29200;SDS011;16244;51.956;12.980;2024-01-16T03:25:04;0.30;;;0.30;;
29200;SDS011;16244;51.956;12.980;2024-01-16T03:27:32;0.30;;;0.30;;
29200;SDS011;16244;51.956;12.980;2024-01-16T03:30:00;0.40;;;0.40;;
29200;SDS011;16244;51.956;12.980;2024-01-16T03:32:29;3.40;;;0.30;;
29200;SDS011;16244;51.956;12.980;2024-01-16T03:34:57;0.40;;;0.40;;
29200;SDS011;16244;51.956;12.980;2024-01-16T03:37:24;0.40;;;0.40;;
29200;SDS011;16244;51.956;12.980;2024-01-16T03:39:52;0.40;;;0.40;;
29200;SDS011;16244;51.956;12.980;2024-01-16T03:42:20;3.03;;;0.40;;
29200;SDS011;16244;51.956;12.980;2024-01-16T03:44:48;0.70;;;0.40;;
29200;SDS011;16244;51.956;12.980;2024-01-16T03:47:16;0.40;;;0.40;;
29200;SDS011;16244;51.956;12.980;2024-01-16T03:49:45;0.37;;;0.37;;
29200;SDS011;16244;51.956;12.980;2024-01-16T03:52:13;0.40;;;0.40;;
29200;SDS011;16244;51.956;12.980;2024-01-16T03:54:40;0.40;;;0.40;;
29200;SDS011;16244;51.956;12.980;2024-01-16T03:57:08;0.40;;;0.40;;
29200;SDS011;16244;51.956;12.980;2024-01-16T03:59:36;0.40;;;0.40;;
29200;SDS011;16244;51.956;12.980;2024-01-16T04:02:04;0.70;;;0.70;;
29200;SDS011;16244;51.956;12.980;2024-01-16T04:04:32;0.67;;;0.30;;
29200;SDS011;16244;51.956;12.980;2024-01-16T04:07:01;0.30;;;0.30;;
29200;SDS011;16244;51.956;12.980;2024-01-16T04:09:29;0.40;;;0.40;;
29200;SDS011;16244;51.956;12.980;2024-01-16T04:11:56;0.47;;;0.30;;
29200;SDS011;16244;51.956;12.980;2024-01-16T04:14:26;0.30;;;0.30;;
29200;SDS011;16244;51.956;12.980;2024-01-16T04:16:54;0.40;;;0.40;;
29200;SDS011;16244;51.956;12.980;2024-01-16T04:19:21;0.70;;;0.70;;
29200;SDS011;16244;51.956;12.980;2024-01-16T04:21:49;0.40;;;0.40;;
29200;SDS011;16244;51.956;12.980;2024-01-16T04:24:19;0.60;;;0.60;;
29200;SDS011;16244;51.956;12.980;2024-01-16T04:26:47;0.47;;;0.47;;
29200;SDS011;16244;51.956;12.980;2024-01-16T04:29:14;0.40;;;0.40;;
29200;SDS011;16244;51.956;12.980;2024-01-16T04:31:42;0.40;;;0.40;;
29200;SDS011;16244;51.956;12.980;2024-01-16T04:34:09;0.60;;;0.60;;
29200;SDS011;16244;51.956;12.980;2024-01-16T04:36:37;0.60;;;0.57;;
29200;SDS011;16244;51.956;12.980;2024-01-16T04:39:04;3.03;;;0.43;;
29200;SDS011;16244;51.956;12.980;2024-01-16T04:41:33;1.37;;;0.97;;
29200;SDS011;16244;51.956;12.980;2024-01-16T04:44:02;2.30;;;0.60;;
29200;SDS011;16244;51.956;12.980;2024-01-16T04:46:29;1.37;;;0.90;;
29200;SDS011;16244;51.956;12.980;2024-01-16T04:48:57;0.50;;;0.40;;
29200;SDS011;16244;51.956;12.980;2024-01-16T04:51:24;1.00;;;0.73;;
29200;SDS011;16244;51.956;12.980;2024-01-16T04:53:52;2.83;;;1.20;;
29200;SDS011;16244;51.956;12.980;2024-01-16T04:56:19;2.47;;;0.70;;
29200;SDS011;16244;51.956;12.980;2024-01-16T04:58:48;0.60;;;0.60;;
29200;SDS011;16244;51.956;12.980;2024-01-16T05:01:18;1.07;;;1.07;;
29200;SDS011;16244;51.956;12.980;2024-01-16T05:03:45;4.00;;;3.83;;
29200;SDS011;16244;51.956;12.980;2024-01-16T05:06:13;1.10;;;1.10;;
29200;SDS011;16244;51.956;12.980;2024-01-16T05:08:41;0.80;;;0.80;;
29200;SDS011;16244;51.956;12.980;2024-01-16T05:11:09;0.77;;;0.77;;
29200;SDS011;16244;51.956;12.980;2024-01-16T05:13:36;0.50;;;0.50;;
29200;SDS011;16244;51.956;12.980;2024-01-16T05:16:05;0.90;;;0.90;;
29200;SDS011;16244;51.956;12.980;2024-01-16T05:18:34;2.87;;;0.80;;
29200;SDS011;16244;51.956;12.980;2024-01-16T05:21:01;0.60;;;0.60;;
29200;SDS011;16244;51.956;12.980;2024-01-16T05:23:29;2.50;;;0.97;;
29200;SDS011;16244;51.956;12.980;2024-01-16T05:25:56;2.30;;;0.80;;
29200;SDS011;16244;51.956;12.980;2024-01-16T05:28:24;0.70;;;0.70;;
29200;SDS011;16244;51.956;12.980;2024-01-16T05:30:52;0.53;;;0.53;;
29200;SDS011;16244;51.956;12.980;2024-01-16T05:33:20;0.70;;;0.70;;
29200;SDS011;16244;51.956;12.980;2024-01-16T05:35:48;0.43;;;0.43;;
29200;SDS011;16244;51.956;12.980;2024-01-16T05:38:16;0.43;;;0.43;;
29200;SDS011;16244;51.956;12.980;2024-01-16T05:40:44;0.40;;;0.40;;
29200;SDS011;16244;51.956;12.980;2024-01-16T05:43:11;0.40;;;0.40;;
29200;SDS011;16244;51.956;12.980;2024-01-16T05:45:40;0.50;;;0.50;;
29200;SDS011;16244;51.956;12.980;2024-01-16T05:48:07;1.73;;;0.37;;
29200;SDS011;16244;51.956;12.980;2024-01-16T05:50:37;0.40;;;0.40;;
29200;SDS011;16244;51.956;12.980;2024-01-16T05:53:04;0.63;;;0.47;;
29200;SDS011;16244;51.956;12.980;2024-01-16T05:55:31;0.40;;;0.40;;
29200;SDS011;16244;51.956;12.980;2024-01-16T05:58:01;0.53;;;0.40;;
29200;SDS011;16244;51.956;12.980;2024-01-16T06:00:29;0.40;;;0.40;;
29200;SDS011;16244;51.956;12.980;2024-01-16T06:02:56;0.40;;;0.40;;
29200;SDS011;16244;51.956;12.980;2024-01-16T06:05:24;0.40;;;0.40;;
29200;SDS011;16244;51.956;12.980;2024-01-16T06:07:53;0.30;;;0.30;;
29200;SDS011;16244;51.956;12.980;2024-01-16T06:10:20;0.30;;;0.30;;
29200;SDS011;16244;51.956;12.980;2024-01-16T06:12:48;0.30;;;0.30;;
29200;SDS011;16244;51.956;12.980;2024-01-16T06:15:15;2.23;;;0.50;;
29200;SDS011;16244;51.956;12.980;2024-01-16T06:17:43;0.50;;;0.50;;
29200;SDS011;16244;51.956;12.980;2024-01-16T06:20:10;0.33;;;0.33;;
29200;SDS011;16244;51.956;12.980;2024-01-16T06:22:38;0.30;;;0.30;;
29200;SDS011;16244;51.956;12.980;2024-01-16T06:25:07;0.33;;;0.33;;
29200;SDS011;16244;51.956;12.980;2024-01-16T06:27:35;0.40;;;0.40;;
29200;SDS011;16244;51.956;12.980;2024-01-16T06:30:02;1.37;;;0.40;;
29200;SDS011;16244;51.956;12.980;2024-01-16T06:32:31;0.40;;;0.40;;
29200;SDS011;16244;51.956;12.980;2024-01-16T06:34:59;3.90;;;0.40;;
29200;SDS011;16244;51.956;12.980;2024-01-16T06:37:28;0.53;;;0.40;;
29200;SDS011;16244;51.956;12.980;2024-01-16T06:39:56;0.30;;;0.30;;
29200;SDS011;16244;51.956;12.980;2024-01-16T06:42:26;1.70;;;0.47;;
29200;SDS011;16244;51.956;12.980;2024-01-16T06:44:53;0.50;;;0.50;;
29200;SDS011;16244;51.956;12.980;2024-01-16T06:47:21;0.50;;;0.50;;
29200;SDS011;16244;51.956;12.980;2024-01-16T06:49:52;0.40;;;0.40;;
29200;SDS011;16244;51.956;12.980;2024-01-16T06:52:20;0.40;;;0.40;;
29200;SDS011;16244;51.956;12.980;2024-01-16T06:54:53;0.30;;;0.30;;
29200;SDS011;16244;51.956;12.980;2024-01-16T06:57:46;0.33;;;0.33;;
29200;SDS011;16244;51.956;12.980;2024-01-16T07:00:18;0.40;;;0.40;;
29200;SDS011;16244;51.956;12.980;2024-01-16T07:02:50;0.77;;;0.77;;
29200;SDS011;16244;51.956;12.980;2024-01-16T07:05:20;0.60;;;0.60;;
29200;SDS011;16244;51.956;12.980;2024-01-16T07:07:48;0.70;;;0.50;;
29200;SDS011;16244;51.956;12.980;2024-01-16T07:10:16;0.50;;;0.50;;
29200;SDS011;16244;51.956;12.980;2024-01-16T07:12:49;0.40;;;0.40;;
29200;SDS011;16244;51.956;12.980;2024-01-16T07:15:18;0.70;;;0.70;;
29200;SDS011;16244;51.956;12.980;2024-01-16T07:17:47;1.57;;;0.70;;
29200;SDS011;16244;51.956;12.980;2024-01-16T07:20:17;0.70;;;0.50;;
29200;SDS011;16244;51.956;12.980;2024-01-16T07:22:45;0.77;;;0.40;;
29200;SDS011;16244;51.956;12.980;2024-01-16T07:25:13;0.40;;;0.40;;
29200;SDS011;16244;51.956;12.980;2024-01-16T07:27:40;0.50;;;0.50;;
29200;SDS011;16244;51.956;12.980;2024-01-16T07:30:13;0.53;;;0.50;;
29200;SDS011;16244;51.956;12.980;2024-01-16T07:32:41;3.77;;;0.63;;
29200;SDS011;16244;51.956;12.980;2024-01-16T07:35:08;0.50;;;0.50;;
29200;SDS011;16244;51.956;12.980;2024-01-16T07:37:36;0.70;;;0.70;;
29200;SDS011;16244;51.956;12.980;2024-01-16T07:40:04;0.60;;;0.60;;
29200;SDS011;16244;51.956;12.980;2024-01-16T07:42:35;0.40;;;0.40;;
29200;SDS011;16244;51.956;12.980;2024-01-16T07:45:03;1.10;;;1.10;;
29200;SDS011;16244;51.956;12.980;2024-01-16T07:47:32;0.50;;;0.50;;
29200;SDS011;16244;51.956;12.980;2024-01-16T07:50:02;0.60;;;0.60;;
29200;SDS011;16244;51.956;12.980;2024-01-16T07:52:29;0.60;;;0.60;;
29200;SDS011;16244;51.956;12.980;2024-01-16T07:54:57;0.60;;;0.60;;
29200;SDS011;16244;51.956;12.980;2024-01-16T07:57:24;0.60;;;0.60;;
29200;SDS011;16244;51.956;12.980;2024-01-16T07:59:52;2.23;;;0.40;;
29200;SDS011;16244;51.956;12.980;2024-01-16T08:02:20;0.40;;;0.40;;
29200;SDS011;16244;51.956;12.980;2024-01-16T08:04:49;0.40;;;0.40;;
29200;SDS011;16244;51.956;12.980;2024-01-16T08:07:17;0.40;;;0.40;;
29200;SDS011;16244;51.956;12.980;2024-01-16T08:09:44;0.40;;;0.40;;
29200;SDS011;16244;51.956;12.980;2024-01-16T08:12:12;4.00;;;0.50;;
29200;SDS011;16244;51.956;12.980;2024-01-16T08:14:39;0.50;;;0.50;;
29200;SDS011;16244;51.956;12.980;2024-01-16T08:17:07;0.57;;;0.57;;
29200;SDS011;16244;51.956;12.980;2024-01-16T08:19:34;2.60;;;0.80;;
29200;SDS011;16244;51.956;12.980;2024-01-16T08:22:03;1.13;;;0.60;;
29200;SDS011;16244;51.956;12.980;2024-01-16T08:24:31;0.60;;;0.60;;
29200;SDS011;16244;51.956;12.980;2024-01-16T08:26:59;0.63;;;0.50;;
29200;SDS011;16244;51.956;12.980;2024-01-16T08:29:27;0.80;;;0.80;;
29200;SDS011;16244;51.956;12.980;2024-01-16T08:31:54;0.80;;;0.60;;
29200;SDS011;16244;51.956;12.980;2024-01-16T08:34:22;0.90;;;0.90;;
29200;SDS011;16244;51.956;12.980;2024-01-16T08:36:50;0.60;;;0.60;;
29200;SDS011;16244;51.956;12.980;2024-01-16T08:39:21;1.00;;;1.00;;
29200;SDS011;16244;51.956;12.980;2024-01-16T08:41:49;0.90;;;0.90;;
29200;SDS011;16244;51.956;12.980;2024-01-16T08:44:16;0.53;;;0.53;;
29200;SDS011;16244;51.956;12.980;2024-01-16T08:46:44;0.70;;;0.70;;
29200;SDS011;16244;51.956;12.980;2024-01-16T08:49:13;1.53;;;1.53;;
29200;SDS011;16244;51.956;12.980;2024-01-16T08:51:41;0.77;;;0.77;;
29200;SDS011;16244;51.956;12.980;2024-01-16T08:54:10;0.77;;;0.77;;
29200;SDS011;16244;51.956;12.980;2024-01-16T08:56:41;0.80;;;0.80;;
29200;SDS011;16244;51.956;12.980;2024-01-16T08:59:11;0.67;;;0.67;;
29200;SDS011;16244;51.956;12.980;2024-01-16T09:01:38;1.27;;;0.73;;
29200;SDS011;16244;51.956;12.980;2024-01-16T09:04:09;0.70;;;0.70;;
29200;SDS011;16244;51.956;12.980;2024-01-16T09:06:47;0.97;;;0.80;;
29200;SDS011;16244;51.956;12.980;2024-01-16T09:09:32;0.63;;;0.63;;
29200;SDS011;16244;51.956;12.980;2024-01-16T09:12:04;1.13;;;0.93;;
29200;SDS011;16244;51.956;12.980;2024-01-16T09:14:32;0.90;;;0.90;;
29200;SDS011;16244;51.956;12.980;2024-01-16T09:17:00;1.13;;;1.13;;
29200;SDS011;16244;51.956;12.980;2024-01-16T09:19:27;2.47;;;0.93;;
29200;SDS011;16244;51.956;12.980;2024-01-16T09:21:55;1.10;;;1.10;;
29200;SDS011;16244;51.956;12.980;2024-01-16T09:24:23;2.13;;;1.50;;
29200;SDS011;16244;51.956;12.980;2024-01-16T09:26:50;3.00;;;2.33;;
29200;SDS011;16244;51.956;12.980;2024-01-16T09:29:22;2.67;;;2.43;;
29200;SDS011;16244;51.956;12.980;2024-01-16T09:31:51;3.40;;;3.10;;
29200;SDS011;16244;51.956;12.980;2024-01-16T09:34:20;2.20;;;2.10;;
29200;SDS011;16244;51.956;12.980;2024-01-16T09:36:48;1.57;;;1.43;;
29200;SDS011;16244;51.956;12.980;2024-01-16T09:39:17;2.40;;;1.00;;
29200;SDS011;16244;51.956;12.980;2024-01-16T09:41:46;1.37;;;1.37;;
29200;SDS011;16244;51.956;12.980;2024-01-16T09:44:15;2.00;;;0.93;;
29200;SDS011;16244;51.956;12.980;2024-01-16T09:46:45;0.80;;;0.80;;
29200;SDS011;16244;51.956;12.980;2024-01-16T09:49:16;2.13;;;0.70;;
29200;SDS011;16244;51.956;12.980;2024-01-16T09:51:45;2.10;;;0.60;;
29200;SDS011;16244;51.956;12.980;2024-01-16T09:54:14;3.40;;;0.93;;
29200;SDS011;16244;51.956;12.980;2024-01-16T09:56:43;0.50;;;0.50;;
29200;SDS011;16244;51.956;12.980;2024-01-16T09:59:12;0.60;;;0.60;;
29200;SDS011;16244;51.956;12.980;2024-01-16T10:01:50;2.07;;;0.70;;
29200;SDS011;16244;51.956;12.980;2024-01-16T10:04:36;7.33;;;1.70;;
29200;SDS011;16244;51.956;12.980;2024-01-16T10:07:16;0.50;;;0.50;;
29200;SDS011;16244;51.956;12.980;2024-01-16T10:10:00;0.77;;;0.77;;
29200;SDS011;16244;51.956;12.980;2024-01-16T10:12:31;2.30;;;0.60;;
29200;SDS011;16244;51.956;12.980;2024-01-16T10:15:00;3.93;;;0.60;;
29200;SDS011;16244;51.956;12.980;2024-01-16T10:17:39;0.60;;;0.40;;
29200;SDS011;16244;51.956;12.980;2024-01-16T10:20:09;0.60;;;0.50;;
29200;SDS011;16244;51.956;12.980;2024-01-16T10:26:07;0.80;;;0.77;;
29200;SDS011;16244;51.956;12.980;2024-01-16T10:28:37;0.70;;;0.70;;
29200;SDS011;16244;51.956;12.980;2024-01-16T10:31:07;0.40;;;0.40;;
29200;SDS011;16244;51.956;12.980;2024-01-16T10:33:37;0.83;;;0.60;;
29200;SDS011;16244;51.956;12.980;2024-01-16T10:36:10;0.50;;;0.50;;
29200;SDS011;16244;51.956;12.980;2024-01-16T10:38:39;0.40;;;0.40;;
29200;SDS011;16244;51.956;12.980;2024-01-16T10:41:08;2.23;;;0.50;;
29200;SDS011;16244;51.956;12.980;2024-01-16T10:43:38;2.70;;;0.40;;
29200;SDS011;16244;51.956;12.980;2024-01-16T10:46:11;0.57;;;0.50;;
29200;SDS011;16244;51.956;12.980;2024-01-16T10:48:44;0.97;;;0.97;;
29200;SDS011;16244;51.956;12.980;2024-01-16T10:51:13;1.00;;;0.50;;
29200;SDS011;16244;51.956;12.980;2024-01-16T10:53:46;1.23;;;0.50;;
29200;SDS011;16244;51.956;12.980;2024-01-16T10:56:28;2.80;;;0.57;;
29200;SDS011;16244;51.956;12.980;2024-01-16T10:58:57;8.33;;;0.70;;
29200;SDS011;16244;51.956;12.980;2024-01-16T11:01:51;0.50;;;0.50;;
29200;SDS011;16244;51.956;12.980;2024-01-16T11:04:40;2.00;;;0.60;;
29200;SDS011;16244;51.956;12.980;2024-01-16T11:07:20;0.77;;;0.53;;
29200;SDS011;16244;51.956;12.980;2024-01-16T11:09:54;1.13;;;0.40;;
29200;SDS011;16244;51.956;12.980;2024-01-16T11:12:45;1.57;;;0.47;;
29200;SDS011;16244;51.956;12.980;2024-01-16T11:15:15;1.23;;;0.40;;
29200;SDS011;16244;51.956;12.980;2024-01-16T11:17:44;1.20;;;0.70;;
29200;SDS011;16244;51.956;12.980;2024-01-16T11:20:14;6.37;;;1.10;;
29200;SDS011;16244;51.956;12.980;2024-01-16T11:22:42;1.33;;;0.70;;
29200;SDS011;16244;51.956;12.980;2024-01-16T11:25:14;0.97;;;0.50;;
29200;SDS011;16244;51.956;12.980;2024-01-16T11:27:45;1.70;;;0.60;;
29200;SDS011;16244;51.956;12.980;2024-01-16T11:30:29;0.60;;;0.53;;
29200;SDS011;16244;51.956;12.980;2024-01-16T11:32:58;1.23;;;0.50;;
29200;SDS011;16244;51.956;12.980;2024-01-16T11:35:34;1.00;;;0.40;;
29200;SDS011;16244;51.956;12.980;2024-01-16T11:38:04;1.17;;;0.60;;
29200;SDS011;16244;51.956;12.980;2024-01-16T11:40:34;0.60;;;0.60;;
29200;SDS011;16244;51.956;12.980;2024-01-16T11:46:04;0.87;;;0.87;;
29200;SDS011;16244;51.956;12.980;2024-01-16T11:48:32;0.70;;;0.70;;
29200;SDS011;16244;51.956;12.980;2024-01-16T11:51:21;2.83;;;0.67;;
29200;SDS011;16244;51.956;12.980;2024-01-16T11:53:50;1.50;;;0.50;;
29200;SDS011;16244;51.956;12.980;2024-01-16T11:56:34;0.60;;;0.60;;
29200;SDS011;16244;51.956;12.980;2024-01-16T11:59:32;0.80;;;0.60;;
29200;SDS011;16244;51.956;12.980;2024-01-16T12:02:26;1.73;;;0.60;;
29200;SDS011;16244;51.956;12.980;2024-01-16T12:05:01;4.67;;;0.70;;
29200;SDS011;16244;51.956;12.980;2024-01-16T12:07:44;1.90;;;0.70;;
29200;SDS011;16244;51.956;12.980;2024-01-16T12:10:15;1.00;;;0.80;;
29200;SDS011;16244;51.956;12.980;2024-01-16T12:12:43;1.00;;;0.60;;
29200;SDS011;16244;51.956;12.980;2024-01-16T12:15:15;4.60;;;0.90;;
29200;SDS011;16244;51.956;12.980;2024-01-16T12:17:53;1.33;;;0.63;;
29200;SDS011;16244;51.956;12.980;2024-01-16T12:20:22;0.77;;;0.77;;
29200;SDS011;16244;51.956;12.980;2024-01-16T12:22:56;2.07;;;1.17;;
29200;SDS011;16244;51.956;12.980;2024-01-16T12:25:25;3.37;;;1.30;;
29200;SDS011;16244;51.956;12.980;2024-01-16T12:27:54;1.10;;;1.10;;
29200;SDS011;16244;51.956;12.980;2024-01-16T12:30:24;0.83;;;0.83;;
29200;SDS011;16244;51.956;12.980;2024-01-16T12:33:04;1.80;;;0.90;;
29200;SDS011;16244;51.956;12.980;2024-01-16T12:35:34;3.60;;;1.33;;
29200;SDS011;16244;51.956;12.980;2024-01-16T12:38:04;4.93;;;0.90;;
29200;SDS011;16244;51.956;12.980;2024-01-16T12:40:32;1.20;;;1.10;;
29200;SDS011;16244;51.956;12.980;2024-01-16T12:43:02;0.73;;;0.70;;
29200;SDS011;16244;51.956;12.980;2024-01-16T12:45:30;0.73;;;0.73;;
29200;SDS011;16244;51.956;12.980;2024-01-16T12:47:59;0.80;;;0.80;;
29200;SDS011;16244;51.956;12.980;2024-01-16T12:50:27;1.27;;;0.93;;
29200;SDS011;16244;51.956;12.980;2024-01-16T12:53:05;1.80;;;1.40;;
29200;SDS011;16244;51.956;12.980;2024-01-16T12:55:33;3.03;;;1.53;;
29200;SDS011;16244;51.956;12.980;2024-01-16T12:58:12;5.13;;;1.30;;
29200;SDS011;16244;51.956;12.980;2024-01-16T13:00:41;0.77;;;0.77;;
29200;SDS011;16244;51.956;12.980;2024-01-16T13:03:14;1.10;;;1.00;;
29200;SDS011;16244;51.956;12.980;2024-01-16T13:05:44;7.77;;;1.50;;
29200;SDS011;16244;51.956;12.980;2024-01-16T13:08:20;1.47;;;1.07;;
29200;SDS011;16244;51.956;12.980;2024-01-16T13:11:01;1.00;;;1.00;;
29200;SDS011;16244;51.956;12.980;2024-01-16T13:13:29;1.80;;;0.87;;
29200;SDS011;16244;51.956;12.980;2024-01-16T13:15:58;2.43;;;1.37;;
29200;SDS011;16244;51.956;12.980;2024-01-16T13:18:28;2.00;;;0.80;;
29200;SDS011;16244;51.956;12.980;2024-01-16T13:20:58;0.90;;;0.73;;
29200;SDS011;16244;51.956;12.980;2024-01-16T13:23:31;3.47;;;1.23;;
29200;SDS011;16244;51.956;12.980;2024-01-16T13:26:01;1.63;;;0.90;;
29200;SDS011;16244;51.956;12.980;2024-01-16T13:28:30;1.00;;;1.00;;
29200;SDS011;16244;51.956;12.980;2024-01-16T13:30:58;0.70;;;0.70;;
29200;SDS011;16244;51.956;12.980;2024-01-16T13:33:27;1.27;;;1.27;;
29200;SDS011;16244;51.956;12.980;2024-01-16T13:35:55;1.10;;;0.90;;
29200;SDS011;16244;51.956;12.980;2024-01-16T13:38:23;1.10;;;1.00;;
29200;SDS011;16244;51.956;12.980;2024-01-16T13:40:53;2.47;;;2.30;;
29200;SDS011;16244;51.956;12.980;2024-01-16T13:43:21;1.47;;;1.37;;
29200;SDS011;16244;51.956;12.980;2024-01-16T13:45:49;1.70;;;1.60;;
29200;SDS011;16244;51.956;12.980;2024-01-16T13:48:17;4.30;;;1.60;;
29200;SDS011;16244;51.956;12.980;2024-01-16T13:50:45;2.13;;;2.03;;
29200;SDS011;16244;51.956;12.980;2024-01-16T13:53:13;1.67;;;1.33;;
29200;SDS011;16244;51.956;12.980;2024-01-16T13:55:42;1.83;;;1.43;;
29200;SDS011;16244;51.956;12.980;2024-01-16T13:58:11;1.43;;;1.33;;
29200;SDS011;16244;51.956;12.980;2024-01-16T14:00:39;2.50;;;1.47;;
29200;SDS011;16244;51.956;12.980;2024-01-16T14:03:07;1.33;;;1.23;;
29200;SDS011;16244;51.956;12.980;2024-01-16T14:05:35;1.77;;;0.97;;
29200;SDS011;16244;51.956;12.980;2024-01-16T14:08:06;3.57;;;1.57;;
29200;SDS011;16244;51.956;12.980;2024-01-16T14:10:38;1.47;;;1.00;;
29200;SDS011;16244;51.956;12.980;2024-01-16T14:13:06;5.30;;;1.40;;
29200;SDS011;16244;51.956;12.980;2024-01-16T14:15:36;1.70;;;1.50;;
29200;SDS011;16244;51.956;12.980;2024-01-16T14:18:06;1.80;;;1.20;;
29200;SDS011;16244;51.956;12.980;2024-01-16T14:20:37;2.10;;;1.37;;
29200;SDS011;16244;51.956;12.980;2024-01-16T14:23:05;3.73;;;1.63;;
29200;SDS011;16244;51.956;12.980;2024-01-16T14:25:33;1.50;;;1.40;;
29200;SDS011;16244;51.956;12.980;2024-01-16T14:28:02;2.23;;;1.47;;
29200;SDS011;16244;51.956;12.980;2024-01-16T14:30:31;1.87;;;1.77;;
29200;SDS011;16244;51.956;12.980;2024-01-16T14:33:01;2.10;;;1.67;;
29200;SDS011;16244;51.956;12.980;2024-01-16T14:35:32;1.33;;;1.23;;
29200;SDS011;16244;51.956;12.980;2024-01-16T14:38:01;2.40;;;1.90;;
29200;SDS011;16244;51.956;12.980;2024-01-16T14:40:29;1.97;;;1.03;;
29200;SDS011;16244;51.956;12.980;2024-01-16T14:42:57;2.40;;;1.90;;
29200;SDS011;16244;51.956;12.980;2024-01-16T14:45:33;1.67;;;1.57;;
29200;SDS011;16244;51.956;12.980;2024-01-16T14:48:03;1.90;;;1.80;;
29200;SDS011;16244;51.956;12.980;2024-01-16T14:50:32;3.90;;;1.03;;
29200;SDS011;16244;51.956;12.980;2024-01-16T14:53:02;1.67;;;1.30;;
29200;SDS011;16244;51.956;12.980;2024-01-16T14:55:31;4.53;;;2.10;;